sensor_id;sensor_type;location;lat;lon;timestamp;P1;durP1;ratioP1;P2;durP2;ratioP2
13406;SDS011;6774;48.208;10.766;2022-08-03T00:00:30;0.60;;;0.60;;
13406;SDS011;6774;48.208;10.766;2022-08-03T00:02:57;0.80;;;0.80;;
13406;SDS011;6774;48.208;10.766;2022-08-03T00:05:25;1.07;;;0.57;;
13406;SDS011;6774;48.208;10.766;2022-08-03T00:07:53;0.90;;;0.90;;
13406;SDS011;6774;48.208;10.766;2022-08-03T00:10:21;0.90;;;0.90;;
13406;SDS011;6774;48.208;10.766;2022-08-03T00:12:51;2.87;;;1.33;;
13406;SDS011;6774;48.208;10.766;2022-08-03T00:15:19;1.73;;;1.63;;
13406;SDS011;6774;48.208;10.766;2022-08-03T00:17:47;1.20;;;1.20;;
13406;SDS011;6774;48.208;10.766;2022-08-03T00:20:18;1.43;;;1.10;;
13406;SDS011;6774;48.208;10.766;2022-08-03T00:22:46;2.40;;;0.80;;
13406;SDS011;6774;48.208;10.766;2022-08-03T00:25:14;2.20;;;1.33;;
13406;SDS011;6774;48.208;10.766;2022-08-03T00:27:43;3.03;;;2.23;;
13406;SDS011;6774;48.208;10.766;2022-08-03T00:30:15;2.40;;;2.20;;
13406;SDS011;6774;48.208;10.766;2022-08-03T00:32:43;1.37;;;1.37;;
13406;SDS011;6774;48.208;10.766;2022-08-03T00:35:11;1.23;;;1.13;;
13406;SDS011;6774;48.208;10.766;2022-08-03T00:37:59;2.23;;;1.17;;
13406;SDS011;6774;48.208;10.766;2022-08-03T00:40:27;1.77;;;1.60;;
13406;SDS011;6774;48.208;10.766;2022-08-03T00:42:56;1.63;;;1.53;;
13406;SDS011;6774;48.208;10.766;2022-08-03T00:45:27;1.73;;;1.13;;
13406;SDS011;6774;48.208;10.766;2022-08-03T00:47:56;8.40;;;1.27;;
13406;SDS011;6774;48.208;10.766;2022-08-03T00:50:25;4.47;;;2.37;;
13406;SDS011;6774;48.208;10.766;2022-08-03T00:52:55;2.63;;;2.00;;
13406;SDS011;6774;48.208;10.766;2022-08-03T00:55:24;0.97;;;0.97;;
13406;SDS011;6774;48.208;10.766;2022-08-03T00:57:53;0.87;;;0.87;;
13406;SDS011;6774;48.208;10.766;2022-08-03T01:00:23;1.27;;;1.17;;
13406;SDS011;6774;48.208;10.766;2022-08-03T01:02:53;2.50;;;1.57;;
13406;SDS011;6774;48.208;10.766;2022-08-03T01:05:21;2.10;;;1.60;;
13406;SDS011;6774;48.208;10.766;2022-08-03T01:07:53;1.77;;;1.13;;
13406;SDS011;6774;48.208;10.766;2022-08-03T01:10:31;1.23;;;0.93;;
13406;SDS011;6774;48.208;10.766;2022-08-03T01:13:06;0.80;;;0.80;;
13406;SDS011;6774;48.208;10.766;2022-08-03T01:16:05;1.80;;;0.97;;
13406;SDS011;6774;48.208;10.766;2022-08-03T01:18:43;1.10;;;1.10;;
13406;SDS011;6774;48.208;10.766;2022-08-03T01:21:20;2.30;;;1.87;;
13406;SDS011;6774;48.208;10.766;2022-08-03T01:23:56;2.57;;;1.77;;
13406;SDS011;6774;48.208;10.766;2022-08-03T01:26:37;1.40;;;1.30;;
13406;SDS011;6774;48.208;10.766;2022-08-03T01:29:20;2.73;;;1.07;;
13406;SDS011;6774;48.208;10.766;2022-08-03T01:32:17;3.13;;;1.60;;
13406;SDS011;6774;48.208;10.766;2022-08-03T01:35:09;1.50;;;1.40;;
13406;SDS011;6774;48.208;10.766;2022-08-03T01:37:40;3.17;;;1.17;;
13406;SDS011;6774;48.208;10.766;2022-08-03T01:40:11;2.23;;;1.87;;
13406;SDS011;6774;48.208;10.766;2022-08-03T01:42:42;1.70;;;1.60;;
13406;SDS011;6774;48.208;10.766;2022-08-03T01:45:14;1.23;;;1.13;;
13406;SDS011;6774;48.208;10.766;2022-08-03T01:47:44;1.67;;;1.57;;
13406;SDS011;6774;48.208;10.766;2022-08-03T01:50:14;1.97;;;1.60;;
13406;SDS011;6774;48.208;10.766;2022-08-03T01:52:47;2.03;;;1.87;;
13406;SDS011;6774;48.208;10.766;2022-08-03T01:55:17;1.03;;;1.03;;
13406;SDS011;6774;48.208;10.766;2022-08-03T01:57:47;1.67;;;1.57;;
13406;SDS011;6774;48.208;10.766;2022-08-03T02:00:33;1.47;;;1.37;;
13406;SDS011;6774;48.208;10.766;2022-08-03T02:03:04;1.30;;;1.30;;
13406;SDS011;6774;48.208;10.766;2022-08-03T02:05:33;2.60;;;1.80;;
13406;SDS011;6774;48.208;10.766;2022-08-03T02:08:02;1.33;;;1.23;;
13406;SDS011;6774;48.208;10.766;2022-08-03T02:10:33;1.70;;;1.60;;
13406;SDS011;6774;48.208;10.766;2022-08-03T02:13:04;1.67;;;1.57;;
13406;SDS011;6774;48.208;10.766;2022-08-03T02:15:36;0.80;;;0.80;;
13406;SDS011;6774;48.208;10.766;2022-08-03T02:18:05;1.33;;;1.23;;
13406;SDS011;6774;48.208;10.766;2022-08-03T02:20:36;1.67;;;1.57;;
13406;SDS011;6774;48.208;10.766;2022-08-03T02:23:05;1.10;;;0.73;;
13406;SDS011;6774;48.208;10.766;2022-08-03T02:25:33;0.57;;;0.57;;
13406;SDS011;6774;48.208;10.766;2022-08-03T02:28:07;0.83;;;0.83;;
13406;SDS011;6774;48.208;10.766;2022-08-03T02:30:39;1.33;;;0.53;;
13406;SDS011;6774;48.208;10.766;2022-08-03T02:33:10;0.90;;;0.83;;
13406;SDS011;6774;48.208;10.766;2022-08-03T02:35:40;1.10;;;1.10;;
13406;SDS011;6774;48.208;10.766;2022-08-03T02:38:10;1.10;;;1.10;;
13406;SDS011;6774;48.208;10.766;2022-08-03T02:40:40;1.53;;;1.43;;
13406;SDS011;6774;48.208;10.766;2022-08-03T02:43:12;1.20;;;1.10;;
13406;SDS011;6774;48.208;10.766;2022-08-03T02:45:47;0.93;;;0.93;;
13406;SDS011;6774;48.208;10.766;2022-08-03T02:48:16;0.80;;;0.80;;
13406;SDS011;6774;48.208;10.766;2022-08-03T02:50:48;1.00;;;0.83;;
13406;SDS011;6774;48.208;10.766;2022-08-03T02:53:19;1.20;;;0.67;;
13406;SDS011;6774;48.208;10.766;2022-08-03T02:55:48;3.53;;;0.80;;
13406;SDS011;6774;48.208;10.766;2022-08-03T02:58:17;1.40;;;1.00;;
13406;SDS011;6774;48.208;10.766;2022-08-03T03:00:48;1.70;;;1.60;;
13406;SDS011;6774;48.208;10.766;2022-08-03T03:03:17;1.00;;;1.00;;
13406;SDS011;6774;48.208;10.766;2022-08-03T03:05:47;0.73;;;0.73;;
13406;SDS011;6774;48.208;10.766;2022-08-03T03:08:22;0.63;;;0.60;;
13406;SDS011;6774;48.208;10.766;2022-08-03T03:10:54;1.63;;;1.20;;
13406;SDS011;6774;48.208;10.766;2022-08-03T03:13:23;1.27;;;1.00;;
13406;SDS011;6774;48.208;10.766;2022-08-03T03:15:55;1.20;;;1.10;;
13406;SDS011;6774;48.208;10.766;2022-08-03T03:18:26;0.90;;;0.90;;
13406;SDS011;6774;48.208;10.766;2022-08-03T03:20:55;1.47;;;1.37;;
13406;SDS011;6774;48.208;10.766;2022-08-03T03:23:25;2.10;;;1.10;;
13406;SDS011;6774;48.208;10.766;2022-08-03T03:25:55;1.30;;;1.30;;
13406;SDS011;6774;48.208;10.766;2022-08-03T03:28:24;1.17;;;1.17;;
13406;SDS011;6774;48.208;10.766;2022-08-03T03:30:52;6.33;;;2.60;;
13406;SDS011;6774;48.208;10.766;2022-08-03T03:33:21;0.93;;;0.93;;
13406;SDS011;6774;48.208;10.766;2022-08-03T03:35:50;1.27;;;1.23;;
13406;SDS011;6774;48.208;10.766;2022-08-03T03:38:18;2.17;;;2.00;;
13406;SDS011;6774;48.208;10.766;2022-08-03T03:40:46;0.77;;;0.77;;
13406;SDS011;6774;48.208;10.766;2022-08-03T03:43:14;0.80;;;0.80;;
13406;SDS011;6774;48.208;10.766;2022-08-03T03:45:44;1.23;;;1.17;;
13406;SDS011;6774;48.208;10.766;2022-08-03T03:48:14;1.00;;;1.00;;
13406;SDS011;6774;48.208;10.766;2022-08-03T03:50:43;2.03;;;1.90;;
13406;SDS011;6774;48.208;10.766;2022-08-03T03:53:12;1.80;;;1.70;;
13406;SDS011;6774;48.208;10.766;2022-08-03T03:55:41;1.13;;;1.13;;
13406;SDS011;6774;48.208;10.766;2022-08-03T03:58:29;0.70;;;0.70;;
13406;SDS011;6774;48.208;10.766;2022-08-03T04:00:58;1.00;;;0.70;;
13406;SDS011;6774;48.208;10.766;2022-08-03T04:03:26;1.20;;;1.20;;
13406;SDS011;6774;48.208;10.766;2022-08-03T04:05:57;0.83;;;0.83;;
13406;SDS011;6774;48.208;10.766;2022-08-03T04:08:54;5.73;;;2.47;;
13406;SDS011;6774;48.208;10.766;2022-08-03T04:11:40;3.20;;;1.70;;
13406;SDS011;6774;48.208;10.766;2022-08-03T04:14:13;0.93;;;0.93;;
13406;SDS011;6774;48.208;10.766;2022-08-03T04:16:45;1.77;;;1.67;;
13406;SDS011;6774;48.208;10.766;2022-08-03T04:19:17;1.87;;;1.33;;
13406;SDS011;6774;48.208;10.766;2022-08-03T04:21:51;0.70;;;0.70;;
13406;SDS011;6774;48.208;10.766;2022-08-03T04:24:22;0.70;;;0.70;;
13406;SDS011;6774;48.208;10.766;2022-08-03T04:26:53;0.90;;;0.87;;
13406;SDS011;6774;48.208;10.766;2022-08-03T04:29:22;1.33;;;1.23;;
13406;SDS011;6774;48.208;10.766;2022-08-03T04:31:52;1.23;;;1.20;;
13406;SDS011;6774;48.208;10.766;2022-08-03T04:34:22;1.63;;;1.53;;
13406;SDS011;6774;48.208;10.766;2022-08-03T04:36:52;1.50;;;1.40;;
13406;SDS011;6774;48.208;10.766;2022-08-03T04:39:26;1.43;;;1.33;;
13406;SDS011;6774;48.208;10.766;2022-08-03T04:41:58;1.17;;;1.17;;
13406;SDS011;6774;48.208;10.766;2022-08-03T04:44:43;0.93;;;0.93;;
13406;SDS011;6774;48.208;10.766;2022-08-03T04:47:12;0.97;;;0.93;;
13406;SDS011;6774;48.208;10.766;2022-08-03T04:49:40;2.80;;;1.90;;
13406;SDS011;6774;48.208;10.766;2022-08-03T04:52:10;1.60;;;1.50;;
13406;SDS011;6774;48.208;10.766;2022-08-03T04:54:39;3.43;;;2.60;;
13406;SDS011;6774;48.208;10.766;2022-08-03T04:57:15;2.70;;;1.20;;
13406;SDS011;6774;48.208;10.766;2022-08-03T04:59:49;1.87;;;1.77;;
13406;SDS011;6774;48.208;10.766;2022-08-03T05:02:28;1.47;;;1.43;;
13406;SDS011;6774;48.208;10.766;2022-08-03T05:04:57;1.33;;;1.20;;
13406;SDS011;6774;48.208;10.766;2022-08-03T05:07:26;1.77;;;1.27;;
13406;SDS011;6774;48.208;10.766;2022-08-03T05:10:02;4.37;;;1.37;;
13406;SDS011;6774;48.208;10.766;2022-08-03T05:12:41;1.97;;;1.87;;
13406;SDS011;6774;48.208;10.766;2022-08-03T05:15:10;1.50;;;1.40;;
13406;SDS011;6774;48.208;10.766;2022-08-03T05:17:38;1.10;;;1.10;;
13406;SDS011;6774;48.208;10.766;2022-08-03T05:20:06;2.10;;;1.40;;
13406;SDS011;6774;48.208;10.766;2022-08-03T05:22:36;1.90;;;1.80;;
13406;SDS011;6774;48.208;10.766;2022-08-03T05:25:05;2.00;;;1.80;;
13406;SDS011;6774;48.208;10.766;2022-08-03T05:27:33;1.60;;;1.50;;
13406;SDS011;6774;48.208;10.766;2022-08-03T05:30:02;2.73;;;1.57;;
13406;SDS011;6774;48.208;10.766;2022-08-03T05:32:51;1.83;;;1.73;;
13406;SDS011;6774;48.208;10.766;2022-08-03T05:35:19;2.23;;;2.07;;
13406;SDS011;6774;48.208;10.766;2022-08-03T05:38:09;1.70;;;1.60;;
13406;SDS011;6774;48.208;10.766;2022-08-03T05:40:37;2.17;;;2.07;;
13406;SDS011;6774;48.208;10.766;2022-08-03T05:43:22;1.37;;;1.30;;
13406;SDS011;6774;48.208;10.766;2022-08-03T05:45:50;3.77;;;2.20;;
13406;SDS011;6774;48.208;10.766;2022-08-03T05:48:38;1.80;;;1.70;;
13406;SDS011;6774;48.208;10.766;2022-08-03T05:51:06;1.93;;;1.77;;
13406;SDS011;6774;48.208;10.766;2022-08-03T05:53:39;1.97;;;1.87;;
13406;SDS011;6774;48.208;10.766;2022-08-03T05:56:07;1.77;;;1.67;;
13406;SDS011;6774;48.208;10.766;2022-08-03T05:58:41;1.80;;;1.63;;
13406;SDS011;6774;48.208;10.766;2022-08-03T06:01:10;5.10;;;2.30;;
13406;SDS011;6774;48.208;10.766;2022-08-03T06:03:39;1.73;;;1.63;;
13406;SDS011;6774;48.208;10.766;2022-08-03T06:06:07;2.57;;;2.37;;
13406;SDS011;6774;48.208;10.766;2022-08-03T06:08:34;2.07;;;1.87;;
13406;SDS011;6774;48.208;10.766;2022-08-03T06:11:04;3.00;;;2.07;;
13406;SDS011;6774;48.208;10.766;2022-08-03T06:13:32;3.40;;;3.20;;
13406;SDS011;6774;48.208;10.766;2022-08-03T06:16:00;3.60;;;1.83;;
13406;SDS011;6774;48.208;10.766;2022-08-03T06:18:28;1.47;;;1.23;;
13406;SDS011;6774;48.208;10.766;2022-08-03T06:20:56;1.70;;;1.60;;
13406;SDS011;6774;48.208;10.766;2022-08-03T06:23:40;3.53;;;1.63;;
13406;SDS011;6774;48.208;10.766;2022-08-03T06:26:25;2.13;;;1.30;;
13406;SDS011;6774;48.208;10.766;2022-08-03T06:28:54;1.33;;;1.33;;
13406;SDS011;6774;48.208;10.766;2022-08-03T06:31:22;2.07;;;1.97;;
13406;SDS011;6774;48.208;10.766;2022-08-03T06:33:59;3.17;;;2.07;;
13406;SDS011;6774;48.208;10.766;2022-08-03T06:36:48;3.83;;;2.03;;
13406;SDS011;6774;48.208;10.766;2022-08-03T06:39:17;1.90;;;1.80;;
13406;SDS011;6774;48.208;10.766;2022-08-03T06:41:50;1.77;;;1.67;;
13406;SDS011;6774;48.208;10.766;2022-08-03T06:44:20;1.40;;;1.33;;
13406;SDS011;6774;48.208;10.766;2022-08-03T06:46:49;0.93;;;0.90;;
13406;SDS011;6774;48.208;10.766;2022-08-03T06:49:17;1.10;;;1.10;;
13406;SDS011;6774;48.208;10.766;2022-08-03T06:51:45;1.30;;;0.80;;
13406;SDS011;6774;48.208;10.766;2022-08-03T06:54:32;2.57;;;1.63;;
13406;SDS011;6774;48.208;10.766;2022-08-03T06:57:03;1.70;;;1.60;;
13406;SDS011;6774;48.208;10.766;2022-08-03T06:59:31;1.47;;;1.37;;
13406;SDS011;6774;48.208;10.766;2022-08-03T07:02:19;1.40;;;1.30;;
13406;SDS011;6774;48.208;10.766;2022-08-03T07:04:47;1.87;;;1.53;;
13406;SDS011;6774;48.208;10.766;2022-08-03T07:07:15;1.57;;;1.47;;
13406;SDS011;6774;48.208;10.766;2022-08-03T07:09:44;2.33;;;1.60;;
13406;SDS011;6774;48.208;10.766;2022-08-03T07:12:25;1.63;;;1.13;;
13406;SDS011;6774;48.208;10.766;2022-08-03T07:14:54;3.13;;;1.93;;
13406;SDS011;6774;48.208;10.766;2022-08-03T07:17:26;2.33;;;1.20;;
13406;SDS011;6774;48.208;10.766;2022-08-03T07:19:54;1.00;;;1.00;;
13406;SDS011;6774;48.208;10.766;2022-08-03T07:22:22;1.20;;;1.07;;
13406;SDS011;6774;48.208;10.766;2022-08-03T07:24:50;2.60;;;0.90;;
13406;SDS011;6774;48.208;10.766;2022-08-03T07:27:18;1.17;;;1.00;;
13406;SDS011;6774;48.208;10.766;2022-08-03T07:29:47;5.40;;;1.00;;
13406;SDS011;6774;48.208;10.766;2022-08-03T07:32:15;1.13;;;1.07;;
13406;SDS011;6774;48.208;10.766;2022-08-03T07:34:43;2.13;;;1.20;;
13406;SDS011;6774;48.208;10.766;2022-08-03T07:37:11;1.95;;;1.30;;
13406;SDS011;6774;48.208;10.766;2022-08-03T07:39:39;4.23;;;1.53;;
13406;SDS011;6774;48.208;10.766;2022-08-03T07:42:06;1.23;;;1.13;;
13406;SDS011;6774;48.208;10.766;2022-08-03T07:44:34;0.98;;;0.98;;
13406;SDS011;6774;48.208;10.766;2022-08-03T07:47:04;3.22;;;0.85;;
13406;SDS011;6774;48.208;10.766;2022-08-03T07:49:31;1.30;;;1.20;;
13406;SDS011;6774;48.208;10.766;2022-08-03T07:51:59;1.45;;;1.35;;
13406;SDS011;6774;48.208;10.766;2022-08-03T07:54:45;1.45;;;1.35;;
13406;SDS011;6774;48.208;10.766;2022-08-03T07:57:13;0.90;;;0.90;;
13406;SDS011;6774;48.208;10.766;2022-08-03T07:59:41;1.08;;;1.08;;
13406;SDS011;6774;48.208;10.766;2022-08-03T08:02:38;0.82;;;0.82;;
13406;SDS011;6774;48.208;10.766;2022-08-03T08:05:06;1.75;;;0.93;;
13406;SDS011;6774;48.208;10.766;2022-08-03T08:07:36;1.00;;;1.00;;
13406;SDS011;6774;48.208;10.766;2022-08-03T08:10:05;1.08;;;0.90;;
13406;SDS011;6774;48.208;10.766;2022-08-03T08:12:35;1.33;;;1.33;;
13406;SDS011;6774;48.208;10.766;2022-08-03T08:15:04;0.90;;;0.90;;
13406;SDS011;6774;48.208;10.766;2022-08-03T08:17:41;0.95;;;0.82;;
13406;SDS011;6774;48.208;10.766;2022-08-03T08:20:10;1.15;;;0.93;;
13406;SDS011;6774;48.208;10.766;2022-08-03T08:22:54;1.02;;;1.02;;
13406;SDS011;6774;48.208;10.766;2022-08-03T08:25:23;1.13;;;1.13;;
13406;SDS011;6774;48.208;10.766;2022-08-03T08:27:51;0.90;;;0.90;;
13406;SDS011;6774;48.208;10.766;2022-08-03T08:30:40;0.60;;;0.60;;
13406;SDS011;6774;48.208;10.766;2022-08-03T08:33:09;2.25;;;0.85;;
13406;SDS011;6774;48.208;10.766;2022-08-03T08:35:50;2.05;;;1.15;;
13406;SDS011;6774;48.208;10.766;2022-08-03T08:38:19;1.08;;;0.80;;
13406;SDS011;6774;48.208;10.766;2022-08-03T08:40:47;0.70;;;0.70;;
13406;SDS011;6774;48.208;10.766;2022-08-03T08:43:15;0.77;;;0.77;;
13406;SDS011;6774;48.208;10.766;2022-08-03T08:45:43;0.60;;;0.60;;
13406;SDS011;6774;48.208;10.766;2022-08-03T08:48:13;0.68;;;0.68;;
13406;SDS011;6774;48.208;10.766;2022-08-03T08:50:41;0.60;;;0.60;;
13406;SDS011;6774;48.208;10.766;2022-08-03T08:53:10;1.23;;;1.23;;
13406;SDS011;6774;48.208;10.766;2022-08-03T08:55:44;1.02;;;0.90;;
13406;SDS011;6774;48.208;10.766;2022-08-03T08:58:25;0.63;;;0.63;;
13406;SDS011;6774;48.208;10.766;2022-08-03T09:00:56;0.93;;;0.93;;
13406;SDS011;6774;48.208;10.766;2022-08-03T09:03:25;0.80;;;0.80;;
13406;SDS011;6774;48.208;10.766;2022-08-03T09:05:56;0.50;;;0.50;;
13406;SDS011;6774;48.208;10.766;2022-08-03T09:08:25;0.85;;;0.70;;
13406;SDS011;6774;48.208;10.766;2022-08-03T09:10:54;0.70;;;0.70;;
13406;SDS011;6774;48.208;10.766;2022-08-03T09:13:22;0.57;;;0.57;;
13406;SDS011;6774;48.208;10.766;2022-08-03T09:16:03;0.65;;;0.65;;
13406;SDS011;6774;48.208;10.766;2022-08-03T09:18:37;0.50;;;0.50;;
13406;SDS011;6774;48.208;10.766;2022-08-03T09:21:16;0.50;;;0.50;;
13406;SDS011;6774;48.208;10.766;2022-08-03T09:23:58;0.98;;;0.98;;
13406;SDS011;6774;48.208;10.766;2022-08-03T09:26:30;0.63;;;0.63;;
13406;SDS011;6774;48.208;10.766;2022-08-03T09:29:00;0.73;;;0.73;;
13406;SDS011;6774;48.208;10.766;2022-08-03T09:31:38;0.55;;;0.55;;
13406;SDS011;6774;48.208;10.766;2022-08-03T09:34:11;0.50;;;0.50;;
13406;SDS011;6774;48.208;10.766;2022-08-03T09:36:41;0.75;;;0.75;;
13406;SDS011;6774;48.208;10.766;2022-08-03T09:39:11;0.47;;;0.47;;
13406;SDS011;6774;48.208;10.766;2022-08-03T09:41:41;0.47;;;0.40;;
13406;SDS011;6774;48.208;10.766;2022-08-03T09:44:10;0.40;;;0.40;;
13406;SDS011;6774;48.208;10.766;2022-08-03T09:46:52;0.85;;;0.65;;
13406;SDS011;6774;48.208;10.766;2022-08-03T09:49:22;1.95;;;0.50;;
13406;SDS011;6774;48.208;10.766;2022-08-03T09:51:51;1.48;;;0.80;;
13406;SDS011;6774;48.208;10.766;2022-08-03T09:54:39;0.55;;;0.55;;
13406;SDS011;6774;48.208;10.766;2022-08-03T09:57:10;0.75;;;0.75;;
13406;SDS011;6774;48.208;10.766;2022-08-03T09:59:47;0.43;;;0.40;;
13406;SDS011;6774;48.208;10.766;2022-08-03T10:02:19;1.67;;;0.50;;
13406;SDS011;6774;48.208;10.766;2022-08-03T10:04:49;0.75;;;0.43;;
13406;SDS011;6774;48.208;10.766;2022-08-03T10:07:19;1.17;;;0.75;;
13406;SDS011;6774;48.208;10.766;2022-08-03T10:09:54;0.52;;;0.50;;
13406;SDS011;6774;48.208;10.766;2022-08-03T10:12:43;0.30;;;0.30;;
13406;SDS011;6774;48.208;10.766;2022-08-03T10:15:13;2.33;;;0.90;;
13406;SDS011;6774;48.208;10.766;2022-08-03T10:18:00;0.40;;;0.40;;
13406;SDS011;6774;48.208;10.766;2022-08-03T10:20:30;0.30;;;0.30;;
13406;SDS011;6774;48.208;10.766;2022-08-03T10:23:02;1.95;;;0.40;;
13406;SDS011;6774;48.208;10.766;2022-08-03T10:25:32;0.50;;;0.50;;
13406;SDS011;6774;48.208;10.766;2022-08-03T10:28:01;0.40;;;0.40;;
13406;SDS011;6774;48.208;10.766;2022-08-03T10:30:30;0.55;;;0.40;;
13406;SDS011;6774;48.208;10.766;2022-08-03T10:33:00;0.80;;;0.80;;
13406;SDS011;6774;48.208;10.766;2022-08-03T10:35:53;0.50;;;0.50;;
13406;SDS011;6774;48.208;10.766;2022-08-03T10:38:25;0.40;;;0.40;;
13406;SDS011;6774;48.208;10.766;2022-08-03T10:40:58;0.50;;;0.50;;
13406;SDS011;6774;48.208;10.766;2022-08-03T10:43:41;0.30;;;0.30;;
13406;SDS011;6774;48.208;10.766;2022-08-03T10:46:14;1.10;;;0.80;;
13406;SDS011;6774;48.208;10.766;2022-08-03T10:48:46;1.00;;;1.00;;
13406;SDS011;6774;48.208;10.766;2022-08-03T10:51:17;0.50;;;0.50;;
13406;SDS011;6774;48.208;10.766;2022-08-03T10:53:45;0.65;;;0.65;;
13406;SDS011;6774;48.208;10.766;2022-08-03T10:56:39;0.52;;;0.52;;
13406;SDS011;6774;48.208;10.766;2022-08-03T10:59:57;0.47;;;0.40;;
13406;SDS011;6774;48.208;10.766;2022-08-03T11:05:38;0.43;;;0.43;;
13406;SDS011;6774;48.208;10.766;2022-08-03T11:11:02;0.57;;;0.50;;
13406;SDS011;6774;48.208;10.766;2022-08-03T11:13:55;0.90;;;0.90;;
13406;SDS011;6774;48.208;10.766;2022-08-03T11:16:25;0.32;;;0.32;;
13406;SDS011;6774;48.208;10.766;2022-08-03T11:18:57;0.50;;;0.50;;
13406;SDS011;6774;48.208;10.766;2022-08-03T11:27:25;1.20;;;0.40;;
13406;SDS011;6774;48.208;10.766;2022-08-03T11:29:56;0.45;;;0.45;;
13406;SDS011;6774;48.208;10.766;2022-08-03T11:35:24;0.43;;;0.43;;
13406;SDS011;6774;48.208;10.766;2022-08-03T11:40:45;0.70;;;0.50;;
13406;SDS011;6774;48.208;10.766;2022-08-03T11:46:12;0.55;;;0.55;;
13406;SDS011;6774;48.208;10.766;2022-08-03T11:48:57;1.55;;;0.40;;
13406;SDS011;6774;48.208;10.766;2022-08-03T11:51:35;0.52;;;0.52;;
13406;SDS011;6774;48.208;10.766;2022-08-03T11:54:05;0.85;;;0.85;;
13406;SDS011;6774;48.208;10.766;2022-08-03T11:56:42;0.40;;;0.40;;
13406;SDS011;6774;48.208;10.766;2022-08-03T11:59:13;0.77;;;0.77;;
13406;SDS011;6774;48.208;10.766;2022-08-03T12:01:47;0.47;;;0.47;;
13406;SDS011;6774;48.208;10.766;2022-08-03T12:04:15;0.57;;;0.57;;
13406;SDS011;6774;48.208;10.766;2022-08-03T12:06:56;0.30;;;0.30;;
13406;SDS011;6774;48.208;10.766;2022-08-03T12:09:24;0.30;;;0.30;;
13406;SDS011;6774;48.208;10.766;2022-08-03T12:11:53;0.30;;;0.30;;
13406;SDS011;6774;48.208;10.766;2022-08-03T12:14:28;2.10;;;0.75;;
13406;SDS011;6774;48.208;10.766;2022-08-03T12:17:16;1.63;;;1.17;;
13406;SDS011;6774;48.208;10.766;2022-08-03T12:19:44;0.40;;;0.40;;
13406;SDS011;6774;48.208;10.766;2022-08-03T12:22:12;4.22;;;1.42;;
13406;SDS011;6774;48.208;10.766;2022-08-03T12:24:42;1.05;;;0.80;;
13406;SDS011;6774;48.208;10.766;2022-08-03T12:27:21;0.32;;;0.30;;
13406;SDS011;6774;48.208;10.766;2022-08-03T12:29:51;2.53;;;0.90;;
13406;SDS011;6774;48.208;10.766;2022-08-03T12:32:24;0.40;;;0.40;;
13406;SDS011;6774;48.208;10.766;2022-08-03T12:34:52;0.43;;;0.43;;
13406;SDS011;6774;48.208;10.766;2022-08-03T12:37:25;1.20;;;0.70;;
13406;SDS011;6774;48.208;10.766;2022-08-03T12:39:54;0.45;;;0.45;;
13406;SDS011;6774;48.208;10.766;2022-08-03T12:42:31;0.52;;;0.47;;
13406;SDS011;6774;48.208;10.766;2022-08-03T12:47:49;0.40;;;0.40;;
13406;SDS011;6774;48.208;10.766;2022-08-03T12:50:27;0.63;;;0.63;;
13406;SDS011;6774;48.208;10.766;2022-08-03T12:52:57;1.48;;;1.38;;
13406;SDS011;6774;48.208;10.766;2022-08-03T12:55:25;0.50;;;0.50;;
13406;SDS011;6774;48.208;10.766;2022-08-03T12:58:27;1.08;;;0.60;;
13406;SDS011;6774;48.208;10.766;2022-08-03T13:01:00;0.75;;;0.73;;
13406;SDS011;6774;48.208;10.766;2022-08-03T13:03:37;0.98;;;0.75;;
13406;SDS011;6774;48.208;10.766;2022-08-03T13:06:11;0.38;;;0.38;;
13406;SDS011;6774;48.208;10.766;2022-08-03T13:08:40;0.68;;;0.50;;
13406;SDS011;6774;48.208;10.766;2022-08-03T13:11:18;1.85;;;1.25;;
13406;SDS011;6774;48.208;10.766;2022-08-03T13:14:10;0.68;;;0.68;;
13406;SDS011;6774;48.208;10.766;2022-08-03T13:16:47;1.48;;;0.60;;
13406;SDS011;6774;48.208;10.766;2022-08-03T13:19:15;0.90;;;0.90;;
13406;SDS011;6774;48.208;10.766;2022-08-03T13:21:43;0.65;;;0.45;;
13406;SDS011;6774;48.208;10.766;2022-08-03T13:24:29;0.63;;;0.63;;
13406;SDS011;6774;48.208;10.766;2022-08-03T13:26:57;1.83;;;0.70;;
13406;SDS011;6774;48.208;10.766;2022-08-03T13:29:25;0.70;;;0.70;;
13406;SDS011;6774;48.208;10.766;2022-08-03T13:31:54;0.50;;;0.50;;
13406;SDS011;6774;48.208;10.766;2022-08-03T13:34:21;1.05;;;0.90;;
13406;SDS011;6774;48.208;10.766;2022-08-03T13:36:49;0.40;;;0.30;;
13406;SDS011;6774;48.208;10.766;2022-08-03T13:39:34;0.70;;;0.70;;
13406;SDS011;6774;48.208;10.766;2022-08-03T13:42:22;0.40;;;0.30;;
13406;SDS011;6774;48.208;10.766;2022-08-03T13:44:50;0.55;;;0.55;;
13406;SDS011;6774;48.208;10.766;2022-08-03T13:47:19;3.33;;;0.50;;
13406;SDS011;6774;48.208;10.766;2022-08-03T13:49:47;0.30;;;0.30;;
13406;SDS011;6774;48.208;10.766;2022-08-03T13:52:26;2.17;;;0.50;;
13406;SDS011;6774;48.208;10.766;2022-08-03T13:54:53;0.50;;;0.50;;
13406;SDS011;6774;48.208;10.766;2022-08-03T13:57:21;0.68;;;0.68;;
13406;SDS011;6774;48.208;10.766;2022-08-03T14:00:10;0.40;;;0.40;;
13406;SDS011;6774;48.208;10.766;2022-08-03T14:02:53;0.30;;;0.30;;
13406;SDS011;6774;48.208;10.766;2022-08-03T14:05:29;0.30;;;0.30;;
13406;SDS011;6774;48.208;10.766;2022-08-03T14:07:57;0.60;;;0.60;;
13406;SDS011;6774;48.208;10.766;2022-08-03T14:10:30;2.45;;;0.70;;
13406;SDS011;6774;48.208;10.766;2022-08-03T14:12:58;0.70;;;0.60;;
13406;SDS011;6774;48.208;10.766;2022-08-03T14:15:26;0.45;;;0.45;;
13406;SDS011;6774;48.208;10.766;2022-08-03T14:17:56;0.50;;;0.50;;
13406;SDS011;6774;48.208;10.766;2022-08-03T14:20:24;0.73;;;0.50;;
13406;SDS011;6774;48.208;10.766;2022-08-03T14:23:05;2.15;;;0.43;;
13406;SDS011;6774;48.208;10.766;2022-08-03T14:25:33;0.43;;;0.40;;
13406;SDS011;6774;48.208;10.766;2022-08-03T14:28:15;0.30;;;0.30;;
13406;SDS011;6774;48.208;10.766;2022-08-03T14:30:43;0.30;;;0.30;;
13406;SDS011;6774;48.208;10.766;2022-08-03T14:33:13;0.30;;;0.30;;
13406;SDS011;6774;48.208;10.766;2022-08-03T14:35:41;0.50;;;0.50;;
13406;SDS011;6774;48.208;10.766;2022-08-03T14:38:08;0.82;;;0.73;;
13406;SDS011;6774;48.208;10.766;2022-08-03T14:40:36;1.58;;;0.65;;
13406;SDS011;6774;48.208;10.766;2022-08-03T14:43:04;0.60;;;0.60;;
13406;SDS011;6774;48.208;10.766;2022-08-03T14:45:32;0.52;;;0.52;;
13406;SDS011;6774;48.208;10.766;2022-08-03T14:48:00;0.30;;;0.30;;
13406;SDS011;6774;48.208;10.766;2022-08-03T14:50:50;1.67;;;0.60;;
13406;SDS011;6774;48.208;10.766;2022-08-03T14:53:21;2.28;;;0.50;;
13406;SDS011;6774;48.208;10.766;2022-08-03T14:55:49;1.40;;;1.27;;
13406;SDS011;6774;48.208;10.766;2022-08-03T14:58:19;0.73;;;0.73;;
13406;SDS011;6774;48.208;10.766;2022-08-03T15:00:48;0.98;;;0.50;;
13406;SDS011;6774;48.208;10.766;2022-08-03T15:03:17;0.40;;;0.40;;
13406;SDS011;6774;48.208;10.766;2022-08-03T15:05:48;1.00;;;0.65;;
13406;SDS011;6774;48.208;10.766;2022-08-03T15:08:18;2.45;;;0.40;;
13406;SDS011;6774;48.208;10.766;2022-08-03T15:10:47;0.52;;;0.52;;
13406;SDS011;6774;48.208;10.766;2022-08-03T15:13:16;0.30;;;0.30;;
13406;SDS011;6774;48.208;10.766;2022-08-03T15:15:45;1.25;;;0.40;;
13406;SDS011;6774;48.208;10.766;2022-08-03T15:18:13;0.57;;;0.57;;
13406;SDS011;6774;48.208;10.766;2022-08-03T15:20:41;0.65;;;0.65;;
13406;SDS011;6774;48.208;10.766;2022-08-03T15:23:13;0.40;;;0.40;;
13406;SDS011;6774;48.208;10.766;2022-08-03T15:25:42;0.30;;;0.30;;
13406;SDS011;6774;48.208;10.766;2022-08-03T15:28:31;0.80;;;0.80;;
13406;SDS011;6774;48.208;10.766;2022-08-03T15:30:59;0.45;;;0.45;;
13406;SDS011;6774;48.208;10.766;2022-08-03T15:33:27;0.40;;;0.40;;
13406;SDS011;6774;48.208;10.766;2022-08-03T15:35:55;0.40;;;0.40;;
13406;SDS011;6774;48.208;10.766;2022-08-03T15:38:25;0.20;;;0.20;;
13406;SDS011;6774;48.208;10.766;2022-08-03T15:40:53;0.30;;;0.30;;
13406;SDS011;6774;48.208;10.766;2022-08-03T15:43:21;0.30;;;0.30;;